sensor_id;sensor_type;location;lat;lon;timestamp;temperature;humidity
74617;DHT22;63123;50.906;4.198;2023-09-08T00:01:00;21.30;78.50
74617;DHT22;63123;50.906;4.198;2023-09-08T00:03:25;21.30;78.50
74617;DHT22;63123;50.906;4.198;2023-09-08T00:05:51;21.30;78.50
74617;DHT22;63123;50.906;4.198;2023-09-08T00:08:16;21.30;78.50
74617;DHT22;63123;50.906;4.198;2023-09-08T00:10:42;21.30;78.50
74617;DHT22;63123;50.906;4.198;2023-09-08T00:13:08;21.30;78.50
74617;DHT22;63123;50.906;4.198;2023-09-08T00:15:34;21.30;78.50
74617;DHT22;63123;50.906;4.198;2023-09-08T00:18:01;21.30;78.50
74617;DHT22;63123;50.906;4.198;2023-09-08T00:20:26;21.30;78.50
74617;DHT22;63123;50.906;4.198;2023-09-08T00:22:52;21.30;78.50
74617;DHT22;63123;50.906;4.198;2023-09-08T00:25:18;21.30;78.50
74617;DHT22;63123;50.906;4.198;2023-09-08T00:27:43;21.30;78.50
74617;DHT22;63123;50.906;4.198;2023-09-08T00:30:09;21.30;78.50
74617;DHT22;63123;50.906;4.198;2023-09-08T00:32:36;21.30;78.50
74617;DHT22;63123;50.906;4.198;2023-09-08T00:35:01;21.30;78.50
74617;DHT22;63123;50.906;4.198;2023-09-08T00:37:27;21.30;78.50
74617;DHT22;63123;50.906;4.198;2023-09-08T00:39:53;21.30;78.50
74617;DHT22;63123;50.906;4.198;2023-09-08T00:42:18;21.30;78.50
74617;DHT22;63123;50.906;4.198;2023-09-08T00:44:44;21.30;78.50
74617;DHT22;63123;50.906;4.198;2023-09-08T00:47:09;21.30;78.50
74617;DHT22;63123;50.906;4.198;2023-09-08T00:49:35;21.30;78.50
74617;DHT22;63123;50.906;4.198;2023-09-08T00:52:01;21.30;78.50
74617;DHT22;63123;50.906;4.198;2023-09-08T00:54:26;21.30;78.40
74617;DHT22;63123;50.906;4.198;2023-09-08T00:56:56;21.30;78.40
74617;DHT22;63123;50.906;4.198;2023-09-08T00:59:22;21.30;78.50
74617;DHT22;63123;50.906;4.198;2023-09-08T01:01:48;21.30;78.40
74617;DHT22;63123;50.906;4.198;2023-09-08T01:04:14;21.30;78.50
74617;DHT22;63123;50.906;4.198;2023-09-08T01:06:39;21.30;78.50
74617;DHT22;63123;50.906;4.198;2023-09-08T01:09:05;21.30;78.40
74617;DHT22;63123;50.906;4.198;2023-09-08T01:11:31;21.30;78.50
74617;DHT22;63123;50.906;4.198;2023-09-08T01:13:57;21.30;78.50
74617;DHT22;63123;50.906;4.198;2023-09-08T01:16:23;21.30;78.40
74617;DHT22;63123;50.906;4.198;2023-09-08T01:18:49;21.30;78.40
74617;DHT22;63123;50.906;4.198;2023-09-08T01:24:28;21.30;78.50
74617;DHT22;63123;50.906;4.198;2023-09-08T01:26:57;21.30;78.40
74617;DHT22;63123;50.906;4.198;2023-09-08T01:29:22;21.30;78.40
74617;DHT22;63123;50.906;4.198;2023-09-08T01:31:51;21.30;78.40
74617;DHT22;63123;50.906;4.198;2023-09-08T01:34:18;21.30;78.50
74617;DHT22;63123;50.906;4.198;2023-09-08T01:36:45;21.30;78.50
74617;DHT22;63123;50.906;4.198;2023-09-08T01:39:11;21.30;78.50
74617;DHT22;63123;50.906;4.198;2023-09-08T01:41:36;21.30;78.40
74617;DHT22;63123;50.906;4.198;2023-09-08T01:44:02;21.30;78.40
74617;DHT22;63123;50.906;4.198;2023-09-08T01:46:33;21.30;78.40
74617;DHT22;63123;50.906;4.198;2023-09-08T01:48:59;21.30;78.40
74617;DHT22;63123;50.906;4.198;2023-09-08T01:51:25;21.30;78.40
74617;DHT22;63123;50.906;4.198;2023-09-08T01:53:51;21.30;78.40
74617;DHT22;63123;50.906;4.198;2023-09-08T01:56:16;21.30;78.40
74617;DHT22;63123;50.906;4.198;2023-09-08T01:58:42;21.30;78.40
74617;DHT22;63123;50.906;4.198;2023-09-08T02:01:07;21.30;78.40
74617;DHT22;63123;50.906;4.198;2023-09-08T02:03:33;21.30;78.40
74617;DHT22;63123;50.906;4.198;2023-09-08T02:05:59;21.30;78.40
74617;DHT22;63123;50.906;4.198;2023-09-08T02:08:24;21.30;78.40
74617;DHT22;63123;50.906;4.198;2023-09-08T02:10:50;21.30;78.40
74617;DHT22;63123;50.906;4.198;2023-09-08T02:13:15;21.30;78.40
74617;DHT22;63123;50.906;4.198;2023-09-08T02:15:41;21.30;78.40
74617;DHT22;63123;50.906;4.198;2023-09-08T02:18:07;21.30;78.40
74617;DHT22;63123;50.906;4.198;2023-09-08T02:20:33;21.30;78.40
74617;DHT22;63123;50.906;4.198;2023-09-08T02:23:04;21.30;78.40
74617;DHT22;63123;50.906;4.198;2023-09-08T02:25:30;21.30;78.40
74617;DHT22;63123;50.906;4.198;2023-09-08T02:27:56;21.30;78.40
74617;DHT22;63123;50.906;4.198;2023-09-08T02:30:22;21.30;78.40
74617;DHT22;63123;50.906;4.198;2023-09-08T02:32:47;21.30;78.40
74617;DHT22;63123;50.906;4.198;2023-09-08T02:35:13;21.30;78.40
74617;DHT22;63123;50.906;4.198;2023-09-08T02:37:39;21.30;78.40
74617;DHT22;63123;50.906;4.198;2023-09-08T02:40:06;21.30;78.40
74617;DHT22;63123;50.906;4.198;2023-09-08T02:42:32;21.30;78.40
74617;DHT22;63123;50.906;4.198;2023-09-08T02:44:57;21.30;78.40
74617;DHT22;63123;50.906;4.198;2023-09-08T02:47:23;21.30;78.40
74617;DHT22;63123;50.906;4.198;2023-09-08T02:49:48;21.30;78.40
74617;DHT22;63123;50.906;4.198;2023-09-08T02:52:14;21.30;78.40
74617;DHT22;63123;50.906;4.198;2023-09-08T02:54:40;21.30;78.40
74617;DHT22;63123;50.906;4.198;2023-09-08T02:57:06;21.30;78.30
74617;DHT22;63123;50.906;4.198;2023-09-08T02:59:31;21.30;78.40
74617;DHT22;63123;50.906;4.198;2023-09-08T03:01:59;21.30;78.30
74617;DHT22;63123;50.906;4.198;2023-09-08T03:04:24;21.30;78.40
74617;DHT22;63123;50.906;4.198;2023-09-08T03:06:50;21.30;78.40
74617;DHT22;63123;50.906;4.198;2023-09-08T03:09:16;21.30;78.40
74617;DHT22;63123;50.906;4.198;2023-09-08T03:11:41;21.30;78.40
74617;DHT22;63123;50.906;4.198;2023-09-08T03:14:07;21.30;78.30
74617;DHT22;63123;50.906;4.198;2023-09-08T03:16:32;21.30;78.30
74617;DHT22;63123;50.906;4.198;2023-09-08T03:18:58;21.30;78.30
74617;DHT22;63123;50.906;4.198;2023-09-08T03:21:24;21.30;78.30
74617;DHT22;63123;50.906;4.198;2023-09-08T03:23:50;21.30;78.30
74617;DHT22;63123;50.906;4.198;2023-09-08T03:26:15;21.30;78.30
74617;DHT22;63123;50.906;4.198;2023-09-08T03:28:42;21.30;78.30
74617;DHT22;63123;50.906;4.198;2023-09-08T03:31:08;21.30;78.30
74617;DHT22;63123;50.906;4.198;2023-09-08T03:33:34;21.30;78.30
74617;DHT22;63123;50.906;4.198;2023-09-08T03:36:00;21.30;78.30
74617;DHT22;63123;50.906;4.198;2023-09-08T03:38:26;21.30;78.30
74617;DHT22;63123;50.906;4.198;2023-09-08T03:40:52;21.30;78.30
74617;DHT22;63123;50.906;4.198;2023-09-08T03:43:17;21.30;78.30
74617;DHT22;63123;50.906;4.198;2023-09-08T03:45:43;21.30;78.30
74617;DHT22;63123;50.906;4.198;2023-09-08T03:48:09;21.30;78.30
74617;DHT22;63123;50.906;4.198;2023-09-08T03:50:35;21.30;78.30
74617;DHT22;63123;50.906;4.198;2023-09-08T03:53:01;21.30;78.20
74617;DHT22;63123;50.906;4.198;2023-09-08T03:55:26;21.30;78.30
74617;DHT22;63123;50.906;4.198;2023-09-08T03:57:52;21.30;78.20
74617;DHT22;63123;50.906;4.198;2023-09-08T04:00:18;21.30;78.20
74617;DHT22;63123;50.906;4.198;2023-09-08T04:02:45;21.30;78.20
74617;DHT22;63123;50.906;4.198;2023-09-08T04:05:10;21.30;78.20
74617;DHT22;63123;50.906;4.198;2023-09-08T04:07:37;21.30;78.20
74617;DHT22;63123;50.906;4.198;2023-09-08T04:10:03;21.30;78.20
74617;DHT22;63123;50.906;4.198;2023-09-08T04:12:28;21.30;78.20
74617;DHT22;63123;50.906;4.198;2023-09-08T04:14:54;21.30;78.20
74617;DHT22;63123;50.906;4.198;2023-09-08T04:17:20;21.30;78.20
74617;DHT22;63123;50.906;4.198;2023-09-08T04:19:45;21.30;78.20
74617;DHT22;63123;50.906;4.198;2023-09-08T04:22:11;21.30;78.20
74617;DHT22;63123;50.906;4.198;2023-09-08T04:24:37;21.30;78.20
74617;DHT22;63123;50.906;4.198;2023-09-08T04:27:03;21.30;78.20
74617;DHT22;63123;50.906;4.198;2023-09-08T04:29:29;21.30;78.20
74617;DHT22;63123;50.906;4.198;2023-09-08T04:31:54;21.30;78.20
74617;DHT22;63123;50.906;4.198;2023-09-08T04:34:20;21.30;78.20
74617;DHT22;63123;50.906;4.198;2023-09-08T04:36:46;21.30;78.20
74617;DHT22;63123;50.906;4.198;2023-09-08T04:39:11;21.30;78.20
74617;DHT22;63123;50.906;4.198;2023-09-08T04:41:37;21.30;78.20
74617;DHT22;63123;50.906;4.198;2023-09-08T04:44:04;21.30;78.30
74617;DHT22;63123;50.906;4.198;2023-09-08T04:46:30;21.30;78.20
74617;DHT22;63123;50.906;4.198;2023-09-08T04:48:55;21.30;78.20
74617;DHT22;63123;50.906;4.198;2023-09-08T04:51:21;21.30;78.20
74617;DHT22;63123;50.906;4.198;2023-09-08T04:53:47;21.30;78.20
74617;DHT22;63123;50.906;4.198;2023-09-08T04:56:13;21.30;78.10
74617;DHT22;63123;50.906;4.198;2023-09-08T04:58:39;21.30;78.20
74617;DHT22;63123;50.906;4.198;2023-09-08T05:01:05;21.30;78.20
74617;DHT22;63123;50.906;4.198;2023-09-08T05:03:31;21.30;78.20
74617;DHT22;63123;50.906;4.198;2023-09-08T05:05:57;21.30;78.20
74617;DHT22;63123;50.906;4.198;2023-09-08T05:08:22;21.30;78.10
74617;DHT22;63123;50.906;4.198;2023-09-08T05:10:48;21.30;78.10
74617;DHT22;63123;50.906;4.198;2023-09-08T05:13:16;21.30;78.10
74617;DHT22;63123;50.906;4.198;2023-09-08T05:15:42;21.30;78.10
74617;DHT22;63123;50.906;4.198;2023-09-08T05:18:09;21.30;78.10
74617;DHT22;63123;50.906;4.198;2023-09-08T05:20:35;21.30;78.10
74617;DHT22;63123;50.906;4.198;2023-09-08T05:23:00;21.30;78.10
74617;DHT22;63123;50.906;4.198;2023-09-08T05:25:26;21.30;78.10
74617;DHT22;63123;50.906;4.198;2023-09-08T05:27:52;21.30;78.10
74617;DHT22;63123;50.906;4.198;2023-09-08T05:30:18;21.30;78.10
74617;DHT22;63123;50.906;4.198;2023-09-08T05:32:44;21.30;78.10
74617;DHT22;63123;50.906;4.198;2023-09-08T05:35:09;21.30;78.10
74617;DHT22;63123;50.906;4.198;2023-09-08T05:37:35;21.30;78.00
74617;DHT22;63123;50.906;4.198;2023-09-08T05:40:01;21.30;78.10
74617;DHT22;63123;50.906;4.198;2023-09-08T05:42:26;21.30;78.00
74617;DHT22;63123;50.906;4.198;2023-09-08T05:44:52;21.30;78.00
74617;DHT22;63123;50.906;4.198;2023-09-08T05:47:20;21.30;78.10
74617;DHT22;63123;50.906;4.198;2023-09-08T05:49:45;21.30;78.00
74617;DHT22;63123;50.906;4.198;2023-09-08T05:52:11;21.30;78.00
74617;DHT22;63123;50.906;4.198;2023-09-08T05:54:37;21.30;78.00
74617;DHT22;63123;50.906;4.198;2023-09-08T05:57:02;21.30;78.00
74617;DHT22;63123;50.906;4.198;2023-09-08T05:59:28;21.30;78.00
74617;DHT22;63123;50.906;4.198;2023-09-08T06:01:54;21.30;78.00
74617;DHT22;63123;50.906;4.198;2023-09-08T06:04:19;21.30;78.10
74617;DHT22;63123;50.906;4.198;2023-09-08T06:06:45;21.30;78.10
74617;DHT22;63123;50.906;4.198;2023-09-08T06:09:10;21.30;78.00
74617;DHT22;63123;50.906;4.198;2023-09-08T06:11:37;21.30;78.10
74617;DHT22;63123;50.906;4.198;2023-09-08T06:14:03;21.30;78.10
74617;DHT22;63123;50.906;4.198;2023-09-08T06:16:28;21.30;78.00
74617;DHT22;63123;50.906;4.198;2023-09-08T06:18:54;21.30;78.10
74617;DHT22;63123;50.906;4.198;2023-09-08T06:21:20;21.30;78.10
74617;DHT22;63123;50.906;4.198;2023-09-08T06:23:45;21.30;78.10
74617;DHT22;63123;50.906;4.198;2023-09-08T06:26:12;21.30;78.10
74617;DHT22;63123;50.906;4.198;2023-09-08T06:28:38;21.30;78.10
74617;DHT22;63123;50.906;4.198;2023-09-08T06:31:04;21.30;78.10
74617;DHT22;63123;50.906;4.198;2023-09-08T06:33:30;21.30;78.10
74617;DHT22;63123;50.906;4.198;2023-09-08T06:35:55;21.30;78.10
74617;DHT22;63123;50.906;4.198;2023-09-08T06:38:21;21.30;78.10
74617;DHT22;63123;50.906;4.198;2023-09-08T06:40:47;21.30;78.10
74617;DHT22;63123;50.906;4.198;2023-09-08T06:43:13;21.30;78.10
74617;DHT22;63123;50.906;4.198;2023-09-08T06:45:39;21.30;78.10
74617;DHT22;63123;50.906;4.198;2023-09-08T06:48:05;21.30;78.10
74617;DHT22;63123;50.906;4.198;2023-09-08T06:50:31;21.30;78.10
74617;DHT22;63123;50.906;4.198;2023-09-08T06:52:56;21.30;78.10
74617;DHT22;63123;50.906;4.198;2023-09-08T06:55:22;21.30;78.10
74617;DHT22;63123;50.906;4.198;2023-09-08T06:57:48;21.30;78.10
74617;DHT22;63123;50.906;4.198;2023-09-08T07:00:14;21.30;78.10
74617;DHT22;63123;50.906;4.198;2023-09-08T07:02:40;21.30;78.10
74617;DHT22;63123;50.906;4.198;2023-09-08T07:05:06;21.30;78.10
74617;DHT22;63123;50.906;4.198;2023-09-08T07:07:35;21.30;78.10
74617;DHT22;63123;50.906;4.198;2023-09-08T07:10:02;21.30;78.10
74617;DHT22;63123;50.906;4.198;2023-09-08T07:12:28;21.30;78.10
74617;DHT22;63123;50.906;4.198;2023-09-08T07:14:53;21.30;78.10
74617;DHT22;63123;50.906;4.198;2023-09-08T07:17:19;21.30;78.10
74617;DHT22;63123;50.906;4.198;2023-09-08T07:19:45;21.30;78.10
74617;DHT22;63123;50.906;4.198;2023-09-08T07:22:10;21.30;78.10
74617;DHT22;63123;50.906;4.198;2023-09-08T07:24:36;21.30;78.10
74617;DHT22;63123;50.906;4.198;2023-09-08T07:27:02;21.30;78.10
74617;DHT22;63123;50.906;4.198;2023-09-08T07:29:28;21.30;78.10
74617;DHT22;63123;50.906;4.198;2023-09-08T07:31:53;21.30;78.10
74617;DHT22;63123;50.906;4.198;2023-09-08T07:34:19;21.30;78.10
74617;DHT22;63123;50.906;4.198;2023-09-08T07:36:45;21.30;78.10
74617;DHT22;63123;50.906;4.198;2023-09-08T07:39:10;21.30;78.30
74617;DHT22;63123;50.906;4.198;2023-09-08T07:41:36;21.30;78.10
74617;DHT22;63123;50.906;4.198;2023-09-08T07:44:05;21.30;78.10
74617;DHT22;63123;50.906;4.198;2023-09-08T07:46:30;21.30;78.10
74617;DHT22;63123;50.906;4.198;2023-09-08T07:49:03;21.30;78.10
74617;DHT22;63123;50.906;4.198;2023-09-08T07:51:29;21.30;78.10
74617;DHT22;63123;50.906;4.198;2023-09-08T07:53:55;21.30;78.10
74617;DHT22;63123;50.906;4.198;2023-09-08T07:56:21;21.30;78.20
74617;DHT22;63123;50.906;4.198;2023-09-08T07:58:47;21.30;78.10
74617;DHT22;63123;50.906;4.198;2023-09-08T08:01:13;21.30;78.10
74617;DHT22;63123;50.906;4.198;2023-09-08T08:03:40;21.30;78.20
74617;DHT22;63123;50.906;4.198;2023-09-08T08:06:06;21.30;78.20
74617;DHT22;63123;50.906;4.198;2023-09-08T08:08:32;21.30;78.10
74617;DHT22;63123;50.906;4.198;2023-09-08T08:10:59;21.30;78.10
74617;DHT22;63123;50.906;4.198;2023-09-08T08:13:24;21.40;78.20
74617;DHT22;63123;50.906;4.198;2023-09-08T08:15:50;21.30;78.10
74617;DHT22;63123;50.906;4.198;2023-09-08T08:18:16;21.30;78.10
74617;DHT22;63123;50.906;4.198;2023-09-08T08:20:41;21.30;78.10
74617;DHT22;63123;50.906;4.198;2023-09-08T08:23:07;21.30;78.10
74617;DHT22;63123;50.906;4.198;2023-09-08T08:25:33;21.40;78.20
74617;DHT22;63123;50.906;4.198;2023-09-08T08:27:59;21.40;78.20
74617;DHT22;63123;50.906;4.198;2023-09-08T08:30:27;21.40;78.20
74617;DHT22;63123;50.906;4.198;2023-09-08T08:32:53;21.40;78.20
74617;DHT22;63123;50.906;4.198;2023-09-08T08:35:21;21.40;78.20
74617;DHT22;63123;50.906;4.198;2023-09-08T08:37:47;21.40;78.20
74617;DHT22;63123;50.906;4.198;2023-09-08T08:40:13;21.40;78.20
74617;DHT22;63123;50.906;4.198;2023-09-08T08:42:39;21.40;78.20
74617;DHT22;63123;50.906;4.198;2023-09-08T08:45:06;21.40;78.30
74617;DHT22;63123;50.906;4.198;2023-09-08T08:47:32;21.40;78.30
74617;DHT22;63123;50.906;4.198;2023-09-08T08:49:59;21.40;78.30
74617;DHT22;63123;50.906;4.198;2023-09-08T08:52:28;21.40;78.30
74617;DHT22;63123;50.906;4.198;2023-09-08T08:54:55;21.40;78.30
74617;DHT22;63123;50.906;4.198;2023-09-08T08:57:23;21.40;78.30
74617;DHT22;63123;50.906;4.198;2023-09-08T08:59:52;21.40;78.30
74617;DHT22;63123;50.906;4.198;2023-09-08T09:02:18;21.40;78.20
74617;DHT22;63123;50.906;4.198;2023-09-08T09:04:44;21.30;78.20
74617;DHT22;63123;50.906;4.198;2023-09-08T09:07:11;21.40;78.30
74617;DHT22;63123;50.906;4.198;2023-09-08T09:09:37;21.40;78.30
74617;DHT22;63123;50.906;4.198;2023-09-08T09:12:05;21.40;78.40
74617;DHT22;63123;50.906;4.198;2023-09-08T09:14:34;21.40;78.30
74617;DHT22;63123;50.906;4.198;2023-09-08T09:17:00;21.40;78.30
74617;DHT22;63123;50.906;4.198;2023-09-08T09:19:27;21.40;78.30
74617;DHT22;63123;50.906;4.198;2023-09-08T09:21:54;21.40;78.30
74617;DHT22;63123;50.906;4.198;2023-09-08T09:24:34;21.40;78.40
74617;DHT22;63123;50.906;4.198;2023-09-08T09:27:03;21.40;78.30
74617;DHT22;63123;50.906;4.198;2023-09-08T09:29:31;21.40;78.40
74617;DHT22;63123;50.906;4.198;2023-09-08T09:31:58;21.40;78.40
74617;DHT22;63123;50.906;4.198;2023-09-08T09:34:27;21.40;78.50
74617;DHT22;63123;50.906;4.198;2023-09-08T09:36:52;21.40;78.40
74617;DHT22;63123;50.906;4.198;2023-09-08T09:39:22;21.40;78.40
74617;DHT22;63123;50.906;4.198;2023-09-08T09:41:52;21.40;78.40
74617;DHT22;63123;50.906;4.198;2023-09-08T09:44:18;21.40;78.40
74617;DHT22;63123;50.906;4.198;2023-09-08T09:46:48;21.40;78.40
74617;DHT22;63123;50.906;4.198;2023-09-08T09:49:15;21.40;78.50
74617;DHT22;63123;50.906;4.198;2023-09-08T09:51:46;21.40;78.50
74617;DHT22;63123;50.906;4.198;2023-09-08T09:54:13;21.40;78.50
74617;DHT22;63123;50.906;4.198;2023-09-08T09:56:40;21.40;78.40
74617;DHT22;63123;50.906;4.198;2023-09-08T09:59:10;21.40;78.50
74617;DHT22;63123;50.906;4.198;2023-09-08T10:01:37;21.40;78.50
74617;DHT22;63123;50.906;4.198;2023-09-08T10:04:05;21.40;78.50
74617;DHT22;63123;50.906;4.198;2023-09-08T10:06:33;21.40;78.50
74617;DHT22;63123;50.906;4.198;2023-09-08T10:09:00;21.40;78.50
74617;DHT22;63123;50.906;4.198;2023-09-08T10:11:45;21.40;78.60
74617;DHT22;63123;50.906;4.198;2023-09-08T10:14:12;21.40;78.60
74617;DHT22;63123;50.906;4.198;2023-09-08T10:16:40;21.40;78.60
74617;DHT22;63123;50.906;4.198;2023-09-08T10:19:09;21.40;78.60
74617;DHT22;63123;50.906;4.198;2023-09-08T10:21:44;21.50;78.70
74617;DHT22;63123;50.906;4.198;2023-09-08T10:24:25;21.40;78.60
74617;DHT22;63123;50.906;4.198;2023-09-08T10:29:21;21.40;78.70
74617;DHT22;63123;50.906;4.198;2023-09-08T10:31:48;21.40;78.60
74617;DHT22;63123;50.906;4.198;2023-09-08T10:34:14;21.40;78.70
74617;DHT22;63123;50.906;4.198;2023-09-08T10:36:40;21.40;78.70
74617;DHT22;63123;50.906;4.198;2023-09-08T10:39:27;21.40;78.60
74617;DHT22;63123;50.906;4.198;2023-09-08T10:47:24;21.60;78.50
74617;DHT22;63123;50.906;4.198;2023-09-08T10:49:50;21.60;78.50
74617;DHT22;63123;50.906;4.198;2023-09-08T10:52:21;21.50;78.50
74617;DHT22;63123;50.906;4.198;2023-09-08T10:54:49;21.50;78.60
74617;DHT22;63123;50.906;4.198;2023-09-08T10:57:22;21.50;78.70
74617;DHT22;63123;50.906;4.198;2023-09-08T11:00:00;21.50;78.70
74617;DHT22;63123;50.906;4.198;2023-09-08T11:05:11;21.50;78.80
74617;DHT22;63123;50.906;4.198;2023-09-08T11:07:39;21.50;78.80
74617;DHT22;63123;50.906;4.198;2023-09-08T11:10:06;21.50;78.90
74617;DHT22;63123;50.906;4.198;2023-09-08T11:12:33;21.50;78.90
74617;DHT22;63123;50.906;4.198;2023-09-08T11:15:01;21.50;78.90
74617;DHT22;63123;50.906;4.198;2023-09-08T11:17:30;21.50;79.30
74617;DHT22;63123;50.906;4.198;2023-09-08T11:19:56;21.50;79.00
74617;DHT22;63123;50.906;4.198;2023-09-08T11:22:24;21.50;79.10
74617;DHT22;63123;50.906;4.198;2023-09-08T11:24:51;21.50;79.40
74617;DHT22;63123;50.906;4.198;2023-09-08T11:27:17;21.50;79.40
74617;DHT22;63123;50.906;4.198;2023-09-08T11:29:44;21.40;79.30
74617;DHT22;63123;50.906;4.198;2023-09-08T11:32:10;21.50;79.40
74617;DHT22;63123;50.906;4.198;2023-09-08T11:34:36;21.50;79.30
74617;DHT22;63123;50.906;4.198;2023-09-08T11:37:28;21.50;79.50
74617;DHT22;63123;50.906;4.198;2023-09-08T11:39:53;21.50;79.60
74617;DHT22;63123;50.906;4.198;2023-09-08T11:42:19;21.50;79.60
74617;DHT22;63123;50.906;4.198;2023-09-08T11:44:46;21.50;79.70
74617;DHT22;63123;50.906;4.198;2023-09-08T11:47:14;21.50;79.70
74617;DHT22;63123;50.906;4.198;2023-09-08T11:49:41;21.50;79.70
74617;DHT22;63123;50.906;4.198;2023-09-08T11:52:07;21.50;79.70
74617;DHT22;63123;50.906;4.198;2023-09-08T11:54:36;21.50;79.80
74617;DHT22;63123;50.906;4.198;2023-09-08T11:57:04;21.50;79.90
74617;DHT22;63123;50.906;4.198;2023-09-08T11:59:34;21.50;80.00
74617;DHT22;63123;50.906;4.198;2023-09-08T12:02:00;21.60;79.80
74617;DHT22;63123;50.906;4.198;2023-09-08T12:04:26;21.60;80.00
74617;DHT22;63123;50.906;4.198;2023-09-08T12:06:53;21.60;80.10
74617;DHT22;63123;50.906;4.198;2023-09-08T12:09:22;21.60;79.90
74617;DHT22;63123;50.906;4.198;2023-09-08T12:11:48;21.60;79.80
74617;DHT22;63123;50.906;4.198;2023-09-08T12:14:14;21.60;79.80
74617;DHT22;63123;50.906;4.198;2023-09-08T12:16:43;21.60;79.90
74617;DHT22;63123;50.906;4.198;2023-09-08T12:19:27;21.60;79.90
74617;DHT22;63123;50.906;4.198;2023-09-08T12:21:56;21.60;79.90
74617;DHT22;63123;50.906;4.198;2023-09-08T12:27:19;21.60;79.90
74617;DHT22;63123;50.906;4.198;2023-09-08T12:30:16;21.60;79.90
74617;DHT22;63123;50.906;4.198;2023-09-08T12:32:42;21.60;79.80
74617;DHT22;63123;50.906;4.198;2023-09-08T12:35:08;21.60;79.90
74617;DHT22;63123;50.906;4.198;2023-09-08T12:37:34;21.60;80.00
74617;DHT22;63123;50.906;4.198;2023-09-08T12:40:00;21.60;80.00
74617;DHT22;63123;50.906;4.198;2023-09-08T12:42:26;21.60;80.10
74617;DHT22;63123;50.906;4.198;2023-09-08T12:44:55;21.60;80.00
74617;DHT22;63123;50.906;4.198;2023-09-08T12:47:21;21.60;80.10
74617;DHT22;63123;50.906;4.198;2023-09-08T12:49:46;21.60;80.00
74617;DHT22;63123;50.906;4.198;2023-09-08T12:52:12;21.60;80.00
74617;DHT22;63123;50.906;4.198;2023-09-08T12:54:38;21.60;80.00
74617;DHT22;63123;50.906;4.198;2023-09-08T12:57:04;21.60;80.30
74617;DHT22;63123;50.906;4.198;2023-09-08T12:59:29;21.60;80.10
74617;DHT22;63123;50.906;4.198;2023-09-08T13:01:55;21.60;80.10
74617;DHT22;63123;50.906;4.198;2023-09-08T13:04:21;21.60;80.10
74617;DHT22;63123;50.906;4.198;2023-09-08T13:06:48;21.60;80.10
74617;DHT22;63123;50.906;4.198;2023-09-08T13:09:14;21.60;80.10
74617;DHT22;63123;50.906;4.198;2023-09-08T13:11:42;21.60;80.10
74617;DHT22;63123;50.906;4.198;2023-09-08T13:14:07;21.60;80.10
74617;DHT22;63123;50.906;4.198;2023-09-08T13:16:33;21.60;80.00
74617;DHT22;63123;50.906;4.198;2023-09-08T13:18:59;21.60;80.10
74617;DHT22;63123;50.906;4.198;2023-09-08T13:21:25;21.60;80.10
74617;DHT22;63123;50.906;4.198;2023-09-08T13:23:50;21.60;80.10
74617;DHT22;63123;50.906;4.198;2023-09-08T13:26:16;21.60;80.20
74617;DHT22;63123;50.906;4.198;2023-09-08T13:28:42;21.60;80.30
74617;DHT22;63123;50.906;4.198;2023-09-08T13:31:07;21.60;80.30
74617;DHT22;63123;50.906;4.198;2023-09-08T13:33:33;21.60;80.20
74617;DHT22;63123;50.906;4.198;2023-09-08T13:35:58;21.60;80.20
74617;DHT22;63123;50.906;4.198;2023-09-08T13:38:24;21.60;80.20
74617;DHT22;63123;50.906;4.198;2023-09-08T13:40:50;21.60;80.20
74617;DHT22;63123;50.906;4.198;2023-09-08T13:43:15;21.60;80.20
74617;DHT22;63123;50.906;4.198;2023-09-08T13:45:41;21.60;80.50
74617;DHT22;63123;50.906;4.198;2023-09-08T13:48:08;21.60;80.40
74617;DHT22;63123;50.906;4.198;2023-09-08T13:50:33;21.60;80.30
74617;DHT22;63123;50.906;4.198;2023-09-08T13:52:59;21.60;80.30
74617;DHT22;63123;50.906;4.198;2023-09-08T13:55:25;21.60;80.40
74617;DHT22;63123;50.906;4.198;2023-09-08T13:57:50;21.60;80.30
74617;DHT22;63123;50.906;4.198;2023-09-08T14:00:17;21.60;80.20
74617;DHT22;63123;50.906;4.198;2023-09-08T14:02:43;21.60;80.30
74617;DHT22;63123;50.906;4.198;2023-09-08T14:05:09;21.60;80.50
74617;DHT22;63123;50.906;4.198;2023-09-08T14:07:35;21.60;80.40
74617;DHT22;63123;50.906;4.198;2023-09-08T14:10:01;21.60;80.30
74617;DHT22;63123;50.906;4.198;2023-09-08T14:12:27;21.60;80.30
74617;DHT22;63123;50.906;4.198;2023-09-08T14:14:52;21.60;80.20
74617;DHT22;63123;50.906;4.198;2023-09-08T14:17:18;21.60;80.20
74617;DHT22;63123;50.906;4.198;2023-09-08T14:19:44;21.60;80.10
74617;DHT22;63123;50.906;4.198;2023-09-08T14:22:09;21.60;80.10
74617;DHT22;63123;50.906;4.198;2023-09-08T14:24:35;21.60;80.10
74617;DHT22;63123;50.906;4.198;2023-09-08T14:27:01;21.60;80.10
74617;DHT22;63123;50.906;4.198;2023-09-08T14:29:26;21.60;80.20
74617;DHT22;63123;50.906;4.198;2023-09-08T14:31:52;21.60;80.10
74617;DHT22;63123;50.906;4.198;2023-09-08T14:34:17;21.60;80.10
74617;DHT22;63123;50.906;4.198;2023-09-08T14:36:44;21.60;80.20
74617;DHT22;63123;50.906;4.198;2023-09-08T14:39:09;21.60;80.10
74617;DHT22;63123;50.906;4.198;2023-09-08T14:41:35;21.60;80.10
74617;DHT22;63123;50.906;4.198;2023-09-08T14:44:00;21.60;80.10
74617;DHT22;63123;50.906;4.198;2023-09-08T14:46:26;21.60;80.20
74617;DHT22;63123;50.906;4.198;2023-09-08T14:48:52;21.60;80.10
74617;DHT22;63123;50.906;4.198;2023-09-08T14:51:17;21.60;80.10
74617;DHT22;63123;50.906;4.198;2023-09-08T14:53:43;21.60;80.20
74617;DHT22;63123;50.906;4.198;2023-09-08T14:56:09;21.60;80.20
74617;DHT22;63123;50.906;4.198;2023-09-08T14:58:34;21.60;80.10
74617;DHT22;63123;50.906;4.198;2023-09-08T15:01:01;21.60;80.20
74617;DHT22;63123;50.906;4.198;2023-09-08T15:03:30;21.60;80.20
74617;DHT22;63123;50.906;4.198;2023-09-08T15:05:56;21.60;80.20
74617;DHT22;63123;50.906;4.198;2023-09-08T15:08:22;21.60;80.20
74617;DHT22;63123;50.906;4.198;2023-09-08T15:10:47;21.60;80.20
74617;DHT22;63123;50.906;4.198;2023-09-08T15:13:13;21.60;80.30
74617;DHT22;63123;50.906;4.198;2023-09-08T15:15:39;21.60;80.40
74617;DHT22;63123;50.906;4.198;2023-09-08T15:18:04;21.60;80.40
74617;DHT22;63123;50.906;4.198;2023-09-08T15:20:30;21.60;80.40
74617;DHT22;63123;50.906;4.198;2023-09-08T15:22:56;21.60;80.20
74617;DHT22;63123;50.906;4.198;2023-09-08T15:25:22;21.60;80.20
74617;DHT22;63123;50.906;4.198;2023-09-08T15:27:47;21.60;80.20
74617;DHT22;63123;50.906;4.198;2023-09-08T15:30:13;21.60;80.20
74617;DHT22;63123;50.906;4.198;2023-09-08T15:32:39;21.60;80.20
74617;DHT22;63123;50.906;4.198;2023-09-08T15:35:06;21.60;80.20
74617;DHT22;63123;50.906;4.198;2023-09-08T15:37:33;21.60;80.30
74617;DHT22;63123;50.906;4.198;2023-09-08T15:39:59;21.60;80.30
74617;DHT22;63123;50.906;4.198;2023-09-08T15:42:25;21.60;80.30